createdAt,value
2022-10-25T00:00:48.510Z,8.52
2022-10-25T00:03:16.068Z,4.78
2022-10-25T00:05:43.399Z,4.55
2022-10-25T00:08:10.798Z,8.95
2022-10-25T00:10:38.561Z,6.25
2022-10-25T00:13:07.206Z,9.75
2022-10-25T00:15:34.512Z,7.13
2022-10-25T00:18:01.840Z,8.18
2022-10-25T00:20:29.178Z,9.95
2022-10-25T00:22:56.494Z,8.02
2022-10-25T00:25:23.827Z,7.18
2022-10-25T00:27:51.154Z,6.07
2022-10-25T00:30:19.877Z,6.50
2022-10-25T00:32:47.532Z,4.72
2022-10-25T00:35:14.993Z,9.15
2022-10-25T00:37:42.312Z,9.52
2022-10-25T00:40:10.019Z,6.97
2022-10-25T00:42:37.345Z,8.82
2022-10-25T00:45:12.109Z,5.60
2022-10-25T00:47:44.256Z,5.50
2022-10-25T00:50:15.519Z,8.55
2022-10-25T00:52:44.070Z,6.68
2022-10-25T00:55:12.964Z,3.42
2022-10-25T00:57:42.757Z,8.20
2022-10-25T01:00:11.865Z,10.68
2022-10-25T01:02:39.301Z,6.95
2022-10-25T01:05:09.116Z,7.30
2022-10-25T01:07:36.994Z,6.25
2022-10-25T01:10:04.636Z,7.35
2022-10-25T01:12:31.969Z,5.70
2022-10-25T01:14:59.321Z,3.67
2022-10-25T01:17:30.765Z,5.70
2022-10-25T01:20:16.641Z,6.97
2022-10-25T01:22:50.588Z,7.35
2022-10-25T01:25:28.325Z,6.97
2022-10-25T01:28:02.214Z,4.40
2022-10-25T01:30:36.113Z,5.85
2022-10-25T01:33:08.859Z,5.90
2022-10-25T01:35:41.753Z,8.63
2022-10-25T01:38:25.553Z,9.40
2022-10-25T01:40:57.753Z,5.50
2022-10-25T01:43:29.687Z,8.05
2022-10-25T01:46:00.843Z,7.85
2022-10-25T01:48:31.674Z,6.57
2022-10-25T01:51:05.214Z,5.40
2022-10-25T01:53:32.514Z,5.63
2022-10-25T01:56:01.613Z,8.18
2022-10-25T01:58:35.704Z,7.63
2022-10-25T02:01:08.813Z,10.50
2022-10-25T02:03:42.196Z,9.95
2022-10-25T02:06:15.999Z,6.75
2022-10-25T02:08:47.722Z,7.18
2022-10-25T02:11:17.967Z,16.20
2022-10-25T02:13:50.258Z,4.63
2022-10-25T02:16:19.363Z,3.58
2022-10-25T02:18:49.885Z,6.82
2022-10-25T02:21:18.827Z,8.10
2022-10-25T02:23:46.849Z,7.25
2022-10-25T02:26:15.206Z,11.13
2022-10-25T02:28:43.063Z,4.55
2022-10-25T02:31:12.826Z,9.48
2022-10-25T02:33:40.219Z,8.02
2022-10-25T02:36:13.181Z,3.50
2022-10-25T02:38:40.855Z,6.85
2022-10-25T02:41:08.224Z,6.80
2022-10-25T02:43:35.609Z,8.38
2022-10-25T02:46:06.030Z,9.10
2022-10-25T02:48:33.423Z,6.40
2022-10-25T02:51:00.734Z,9.40
2022-10-25T02:53:29.619Z,8.25
2022-10-25T02:56:00.366Z,10.00
2022-10-25T02:58:29.551Z,4.55
2022-10-25T03:00:56.998Z,8.43
2022-10-25T03:03:24.462Z,9.25
2022-10-25T03:05:51.805Z,6.80
2022-10-25T03:08:19.220Z,7.25
2022-10-25T03:10:48.113Z,8.10
2022-10-25T03:13:15.442Z,7.65
2022-10-25T03:15:43.342Z,5.75
2022-10-25T03:18:10.949Z,8.45
2022-10-25T03:20:38.377Z,6.53
2022-10-25T03:23:06.128Z,7.05
2022-10-25T03:25:33.774Z,5.20
2022-10-25T03:28:02.419Z,10.35
2022-10-25T03:30:30.143Z,13.07
2022-10-25T03:32:57.473Z,3.65
2022-10-25T03:35:24.893Z,8.73
2022-10-25T03:37:52.931Z,5.43
2022-10-25T03:40:20.636Z,5.70
2022-10-25T03:42:48.031Z,7.43
2022-10-25T03:45:16.807Z,8.25
2022-10-25T03:47:44.410Z,8.13
2022-10-25T03:50:12.390Z,11.68
2022-10-25T03:52:39.739Z,9.43
2022-10-25T03:55:07.288Z,7.78
2022-10-25T03:57:35.066Z,13.45
2022-10-25T04:00:02.435Z,15.98
2022-10-25T04:02:31.151Z,14.40
2022-10-25T04:04:58.426Z,26.77
2022-10-25T04:07:25.753Z,14.82
2022-10-25T04:09:53.087Z,13.93
2022-10-25T04:12:20.412Z,10.50
2022-10-25T04:14:47.723Z,9.77
2022-10-25T04:17:15.046Z,14.05
2022-10-25T04:19:43.724Z,15.65
2022-10-25T04:22:12.013Z,5.75
2022-10-25T04:24:39.402Z,9.57
2022-10-25T04:27:06.718Z,10.60
2022-10-25T04:29:34.056Z,9.63
2022-10-25T04:32:01.353Z,15.02
2022-10-25T04:34:28.670Z,12.73
2022-10-25T04:36:57.322Z,10.00
2022-10-25T04:39:26.027Z,10.35
2022-10-25T04:41:53.345Z,13.10
2022-10-25T04:44:20.702Z,14.15
2022-10-25T04:46:49.001Z,11.88
2022-10-25T04:49:17.119Z,14.93
2022-10-25T04:51:44.615Z,15.50
2022-10-25T04:54:13.883Z,15.13
2022-10-25T04:56:41.226Z,11.90
2022-10-25T04:59:09.799Z,14.32
2022-10-25T05:01:37.165Z,16.02
2022-10-25T05:04:04.665Z,12.10
2022-10-25T05:06:31.983Z,15.77
2022-10-25T05:08:59.282Z,22.25
2022-10-25T05:11:27.999Z,11.90
2022-10-25T05:13:55.355Z,13.82
2022-10-25T05:16:24.397Z,10.63
2022-10-25T05:18:54.234Z,18.42
2022-10-25T05:21:22.292Z,16.05
2022-10-25T05:23:49.697Z,16.23
2022-10-25T05:26:17.988Z,10.40
2022-10-25T05:28:47.474Z,14.25
2022-10-25T05:31:15.715Z,11.75
2022-10-25T05:33:44.918Z,9.07
2022-10-25T05:36:12.691Z,13.23
2022-10-25T05:38:40.176Z,12.07
2022-10-25T05:41:08.122Z,17.67
2022-10-25T05:43:35.407Z,17.42
2022-10-25T05:46:05.271Z,16.30
2022-10-25T05:48:33.135Z,12.52
2022-10-25T05:51:28.779Z,13.75
2022-10-25T05:53:59.410Z,12.73
2022-10-25T05:56:27.687Z,14.85
2022-10-25T05:58:56.208Z,16.25
2022-10-25T06:01:26.193Z,14.98
2022-10-25T06:03:54.442Z,17.27
2022-10-25T06:06:21.845Z,15.38
2022-10-25T06:08:49.247Z,11.43
2022-10-25T06:11:17.857Z,14.85
2022-10-25T06:13:45.170Z,17.42
2022-10-25T06:16:13.647Z,13.65
2022-10-25T06:18:42.987Z,14.27
2022-10-25T06:21:11.622Z,14.55
2022-10-25T06:23:38.987Z,14.90
2022-10-25T06:26:07.547Z,11.70
2022-10-25T06:28:35.543Z,10.65
2022-10-25T06:31:03.389Z,9.77
2022-10-25T06:33:30.796Z,15.75
2022-10-25T06:35:59.997Z,10.43
2022-10-25T06:38:27.812Z,10.75
2022-10-25T06:40:59.094Z,12.23
2022-10-25T06:43:26.385Z,9.27
2022-10-25T06:45:53.951Z,13.15
2022-10-25T06:48:21.341Z,13.20
2022-10-25T06:50:52.075Z,14.20
2022-10-25T06:53:20.944Z,14.82
2022-10-25T06:55:50.674Z,11.93
2022-10-25T06:58:17.978Z,14.15
2022-10-25T07:00:47.399Z,12.10
2022-10-25T07:03:16.890Z,13.60
2022-10-25T07:05:44.216Z,16.42
2022-10-25T07:08:11.511Z,16.75
2022-10-25T07:10:40.741Z,13.40
2022-10-25T07:13:08.023Z,19.52
2022-10-25T07:15:37.464Z,11.27
2022-10-25T07:18:07.252Z,14.30
2022-10-25T07:20:34.552Z,16.83
2022-10-25T07:23:03.346Z,17.25
2022-10-25T07:25:33.965Z,10.18
2022-10-25T07:28:02.655Z,11.27
2022-10-25T07:30:29.947Z,14.35
2022-10-25T07:32:57.310Z,11.48
2022-10-25T07:35:24.596Z,9.23
2022-10-25T07:37:51.898Z,7.97
2022-10-25T07:40:19.172Z,11.30
2022-10-25T07:42:46.467Z,16.80
2022-10-25T07:45:17.378Z,7.53
2022-10-25T07:47:47.970Z,8.73
2022-10-25T07:50:15.510Z,12.20
2022-10-25T07:52:42.865Z,7.32
2022-10-25T07:55:10.340Z,5.75
2022-10-25T07:57:37.633Z,7.45
2022-10-25T08:00:05.353Z,8.43
2022-10-25T08:02:33.976Z,7.32
2022-10-25T08:05:01.704Z,5.18
2022-10-25T08:07:29.012Z,7.15
2022-10-25T08:09:56.299Z,8.32
2022-10-25T08:12:23.620Z,10.73
2022-10-25T08:14:50.952Z,13.05
2022-10-25T08:17:18.293Z,5.70
2022-10-25T08:19:51.088Z,7.50
2022-10-25T08:22:18.709Z,8.45
2022-10-25T08:24:46.009Z,6.35
2022-10-25T08:27:13.290Z,8.82
2022-10-25T08:29:40.645Z,5.43
2022-10-25T08:32:07.939Z,8.57
2022-10-25T08:34:35.304Z,7.25
2022-10-25T08:37:03.984Z,6.63
2022-10-25T08:39:31.326Z,7.82
2022-10-25T08:41:59.786Z,9.27
2022-10-25T08:44:34.577Z,5.88
2022-10-25T08:47:04.042Z,6.68
2022-10-25T08:49:34.764Z,5.65
2022-10-25T08:52:02.561Z,7.82
2022-10-25T08:54:33.018Z,8.40
2022-10-25T08:57:16.291Z,3.88
2022-10-25T08:59:46.066Z,7.68
2022-10-25T09:02:17.431Z,7.90
2022-10-25T09:04:44.972Z,8.45
2022-10-25T09:07:15.754Z,7.88
2022-10-25T09:09:49.377Z,10.13
2022-10-25T09:12:19.763Z,9.38
2022-10-25T09:14:49.674Z,15.85
2022-10-25T09:17:18.838Z,5.72
2022-10-25T09:19:51.878Z,9.32
2022-10-25T09:22:22.192Z,5.43
2022-10-25T09:24:57.730Z,5.72
2022-10-25T09:27:30.257Z,7.00
2022-10-25T09:30:05.011Z,7.97
2022-10-25T09:32:37.793Z,7.80
2022-10-25T09:35:05.848Z,17.08
2022-10-25T09:37:35.536Z,10.25
2022-10-25T09:40:05.672Z,8.43
2022-10-25T09:42:34.931Z,11.40
2022-10-25T09:45:05.374Z,8.20
2022-10-25T09:47:38.519Z,11.63
2022-10-25T09:50:07.638Z,12.88
2022-10-25T09:52:41.459Z,10.20
2022-10-25T09:55:29.551Z,7.93
2022-10-25T09:57:56.877Z,9.82
2022-10-25T10:00:24.291Z,10.30
2022-10-25T10:02:51.751Z,7.20
2022-10-25T10:05:20.494Z,4.65
2022-10-25T10:07:48.930Z,5.90
2022-10-25T10:10:18.498Z,5.40
2022-10-25T10:12:51.020Z,9.70
2022-10-25T10:15:22.280Z,11.77
2022-10-25T10:18:01.608Z,9.05
2022-10-25T10:20:28.939Z,7.57
2022-10-25T10:22:56.309Z,11.35
2022-10-25T10:25:25.582Z,9.27
2022-10-25T10:27:55.006Z,12.88
2022-10-25T10:30:24.265Z,7.15
2022-10-25T10:32:57.078Z,13.70
2022-10-25T10:35:32.598Z,13.27
2022-10-25T10:38:20.248Z,9.82
2022-10-25T10:40:50.717Z,8.75
2022-10-25T10:43:28.256Z,11.88
2022-10-25T10:46:00.726Z,7.93
2022-10-25T10:48:32.646Z,5.95
2022-10-25T10:51:00.090Z,8.88
2022-10-25T10:53:29.500Z,7.05
2022-10-25T10:55:57.965Z,7.10
2022-10-25T10:58:28.336Z,8.77
2022-10-25T11:00:57.693Z,6.45
2022-10-25T11:03:58.805Z,5.88
2022-10-25T11:06:29.463Z,5.70
2022-10-25T11:09:13.117Z,6.57
2022-10-25T11:11:40.750Z,4.28
2022-10-25T11:14:12.043Z,5.05
2022-10-25T11:16:43.752Z,6.28
2022-10-25T11:19:18.155Z,4.68
2022-10-25T11:21:52.775Z,6.78
2022-10-25T11:24:25.646Z,7.10
2022-10-25T11:26:56.719Z,5.93
2022-10-25T11:29:31.711Z,7.32
2022-10-25T11:32:03.553Z,6.45
2022-10-25T11:34:35.435Z,5.13
2022-10-25T11:37:09.937Z,3.95
2022-10-25T11:39:48.087Z,4.00
2022-10-25T11:42:29.864Z,5.20
2022-10-25T11:45:18.432Z,7.60
2022-10-25T11:47:53.037Z,7.38
2022-10-25T11:50:25.511Z,5.95
2022-10-25T11:53:10.057Z,5.13
2022-10-25T11:55:41.027Z,7.20
2022-10-25T11:58:14.203Z,2.95
2022-10-25T12:00:50.404Z,3.53
2022-10-25T12:03:35.644Z,4.97
2022-10-25T12:08:37.216Z,5.05
2022-10-25T12:11:05.516Z,6.22
2022-10-25T12:13:34.788Z,3.58
2022-10-25T12:16:03.286Z,2.70
2022-10-25T12:18:33.038Z,3.35
2022-10-25T12:21:00.751Z,3.65
2022-10-25T12:23:28.801Z,3.00
2022-10-25T12:25:57.999Z,3.97
2022-10-25T12:28:28.605Z,2.22
2022-10-25T12:30:58.646Z,3.53
2022-10-25T12:33:29.368Z,4.18
2022-10-25T12:36:00.283Z,6.57
2022-10-25T12:38:31.837Z,5.40
2022-10-25T12:41:02.046Z,5.10
2022-10-25T12:43:32.692Z,5.57
2022-10-25T12:46:17.668Z,2.75
2022-10-25T12:49:03.121Z,3.47
2022-10-25T12:51:39.689Z,2.50
2022-10-25T12:54:21.003Z,2.28
2022-10-25T12:56:55.139Z,3.28
2022-10-25T12:59:31.608Z,4.00
2022-10-25T13:02:05.683Z,3.22
2022-10-25T13:04:36.943Z,2.73
2022-10-25T13:07:06.854Z,3.33
2022-10-25T13:09:34.992Z,4.70
2022-10-25T13:12:03.617Z,2.42
2022-10-25T13:14:31.880Z,4.40
2022-10-25T13:17:17.941Z,4.10
2022-10-25T13:19:55.092Z,4.93
2022-10-25T13:22:35.710Z,4.50
2022-10-25T13:25:07.114Z,4.00
2022-10-25T13:27:35.126Z,2.13
2022-10-25T13:30:23.490Z,2.33
2022-10-25T13:33:05.703Z,2.85
2022-10-25T13:35:58.883Z,5.97
2022-10-25T13:38:26.657Z,4.38
2022-10-25T13:41:08.999Z,6.13
2022-10-25T13:43:36.886Z,6.35
2022-10-25T13:46:04.214Z,4.57
2022-10-25T13:48:33.137Z,3.38
2022-10-25T13:51:01.599Z,5.30
2022-10-25T13:53:34.183Z,4.95
2022-10-25T13:56:05.128Z,6.00
2022-10-25T13:58:40.957Z,4.65
2022-10-25T14:01:24.797Z,4.13
2022-10-25T14:03:53.122Z,6.03
2022-10-25T14:06:24.843Z,4.57
2022-10-25T14:09:09.960Z,4.38
2022-10-25T14:11:39.208Z,4.18
2022-10-25T14:14:14.856Z,6.00
2022-10-25T14:16:44.978Z,9.25
2022-10-25T14:19:15.447Z,4.93
2022-10-25T14:21:45.923Z,4.20
2022-10-25T14:24:14.747Z,3.75
2022-10-25T14:26:49.523Z,2.40
2022-10-25T14:29:20.609Z,4.90
2022-10-25T14:31:48.037Z,4.72
2022-10-25T14:34:19.028Z,6.60
2022-10-25T14:36:49.138Z,3.10
2022-10-25T14:39:17.475Z,3.92
2022-10-25T14:41:50.597Z,5.38
2022-10-25T14:44:25.165Z,3.95
2022-10-25T14:46:53.493Z,3.63
2022-10-25T14:49:21.280Z,3.45
2022-10-25T14:51:49.054Z,2.40
2022-10-25T14:54:24.181Z,7.18
2022-10-25T14:56:53.319Z,8.35
2022-10-25T14:59:21.514Z,4.30
2022-10-25T15:01:54.698Z,2.42
2022-10-25T15:04:26.375Z,2.70
2022-10-25T15:06:53.784Z,3.95
2022-10-25T15:12:16.368Z,8.10
2022-10-25T15:14:43.977Z,6.05
2022-10-25T15:17:27.315Z,6.53
2022-10-25T15:22:31.804Z,4.75
2022-10-25T15:24:59.128Z,3.70
2022-10-25T15:27:28.078Z,6.25
2022-10-25T15:29:55.508Z,4.05
2022-10-25T15:32:23.736Z,4.70
2022-10-25T15:34:53.697Z,4.07
2022-10-25T15:37:22.196Z,4.28
2022-10-25T15:39:50.343Z,3.00
2022-10-25T15:42:18.013Z,14.43
2022-10-25T15:44:45.599Z,4.78
2022-10-25T15:47:21.772Z,4.32
2022-10-25T15:49:52.010Z,3.83
2022-10-25T15:52:20.738Z,5.95
2022-10-25T15:54:49.185Z,3.88
2022-10-25T15:57:16.603Z,5.65
2022-10-25T15:59:43.996Z,6.55
2022-10-25T16:02:16.139Z,5.10
2022-10-25T16:04:43.504Z,4.82
2022-10-25T16:07:11.905Z,4.20
2022-10-25T16:09:40.619Z,6.78
2022-10-25T16:12:08.659Z,10.25
2022-10-25T16:14:36.954Z,4.63
2022-10-25T16:17:04.302Z,8.20
2022-10-25T16:19:31.849Z,9.32
2022-10-25T16:21:59.866Z,4.80
2022-10-25T16:24:27.198Z,5.97
2022-10-25T16:26:55.896Z,9.07
2022-10-25T16:29:24.632Z,8.63
2022-10-25T16:31:52.000Z,7.22
2022-10-25T16:34:19.528Z,6.07
2022-10-25T16:36:47.465Z,9.35
2022-10-25T16:39:14.932Z,7.18
2022-10-25T16:41:43.596Z,9.77
2022-10-25T16:44:13.713Z,10.82
2022-10-25T16:46:41.169Z,17.10
2022-10-25T16:49:09.234Z,13.65
2022-10-25T16:51:36.906Z,6.68
2022-10-25T16:54:04.667Z,14.07
2022-10-25T16:56:32.307Z,10.60
2022-10-25T16:59:00.432Z,9.57
2022-10-25T17:01:32.146Z,9.65
2022-10-25T17:04:00.093Z,12.05
2022-10-25T17:06:43.063Z,14.43
2022-10-25T17:09:10.878Z,10.60
2022-10-25T17:11:38.315Z,13.38
2022-10-25T17:14:05.861Z,11.50
2022-10-25T17:16:34.524Z,13.65
2022-10-25T17:19:03.097Z,9.57
2022-10-25T17:21:31.400Z,11.30
2022-10-25T17:23:58.730Z,12.38
2022-10-25T17:26:26.264Z,12.15
2022-10-25T17:28:53.620Z,11.93
2022-10-25T17:31:20.979Z,10.02
2022-10-25T17:33:49.629Z,10.50
2022-10-25T17:36:18.317Z,10.45
2022-10-25T17:38:45.639Z,8.32
2022-10-25T17:41:13.671Z,10.98
2022-10-25T17:43:41.755Z,11.45
2022-10-25T17:46:10.307Z,10.32
2022-10-25T17:48:37.623Z,12.10
2022-10-25T17:51:07.112Z,11.55
2022-10-25T17:53:34.581Z,14.63
2022-10-25T17:56:10.449Z,10.55
2022-10-25T17:58:37.900Z,9.30
2022-10-25T18:01:05.373Z,10.63
2022-10-25T18:03:32.863Z,14.98
2022-10-25T18:06:00.860Z,12.77
2022-10-25T18:08:29.682Z,10.57
2022-10-25T18:10:56.993Z,8.00
2022-10-25T18:13:24.670Z,9.13
2022-10-25T18:15:52.595Z,18.98
2022-10-25T18:18:20.171Z,7.20
2022-10-25T18:20:51.404Z,10.43
2022-10-25T18:23:19.072Z,6.90
2022-10-25T18:25:52.764Z,8.98
2022-10-25T18:28:20.214Z,12.20
2022-10-25T18:30:47.542Z,10.55
2022-10-25T18:33:14.997Z,6.70
2022-10-25T18:35:42.353Z,9.02
2022-10-25T18:38:09.713Z,5.78
2022-10-25T18:40:38.674Z,9.70
2022-10-25T18:43:07.386Z,9.27
2022-10-25T18:45:35.995Z,9.32
2022-10-25T18:48:03.379Z,5.82
2022-10-25T18:50:30.660Z,6.88
2022-10-25T18:52:57.971Z,6.60
2022-10-25T18:55:26.517Z,7.38
2022-10-25T18:57:54.618Z,3.85
2022-10-25T19:00:26.149Z,9.05
2022-10-25T19:02:53.878Z,9.07
2022-10-25T19:05:21.317Z,9.40
2022-10-25T19:07:48.772Z,4.70
2022-10-25T19:10:16.372Z,8.55
2022-10-25T19:12:43.716Z,10.65
2022-10-25T19:15:11.506Z,9.30
2022-10-25T19:17:40.157Z,10.57
2022-10-25T19:20:08.433Z,12.23
2022-10-25T19:22:35.723Z,5.80
2022-10-25T19:25:03.039Z,8.68
2022-10-25T19:27:30.387Z,3.72
2022-10-25T19:29:58.494Z,10.63
2022-10-25T19:32:25.827Z,8.13
2022-10-25T19:34:54.475Z,14.43
2022-10-25T19:37:21.797Z,8.65
2022-10-25T19:39:49.202Z,7.88
2022-10-25T19:42:16.764Z,6.32
2022-10-25T19:44:44.414Z,5.75
2022-10-25T19:47:11.901Z,8.38
2022-10-25T19:49:39.216Z,7.25
2022-10-25T19:52:07.893Z,8.18
2022-10-25T19:54:35.209Z,5.95
2022-10-25T19:57:03.250Z,8.90
2022-10-25T19:59:30.630Z,13.65
2022-10-25T20:01:58.023Z,4.60
2022-10-25T20:04:25.690Z,6.60
2022-10-25T20:06:53.058Z,5.22
2022-10-25T20:09:21.927Z,7.00
2022-10-25T20:11:49.280Z,5.07
2022-10-25T20:14:16.661Z,8.35
2022-10-25T20:16:44.026Z,10.45
2022-10-25T20:19:12.960Z,9.77
2022-10-25T20:21:40.318Z,9.07
2022-10-25T20:24:08.411Z,10.07
2022-10-25T20:26:37.930Z,16.13
2022-10-25T20:29:06.185Z,13.60
2022-10-25T20:31:34.184Z,13.65
2022-10-25T20:34:02.370Z,14.88
2022-10-25T20:36:29.907Z,15.32
2022-10-25T20:38:57.288Z,11.60
2022-10-25T20:41:25.535Z,9.75
2022-10-25T20:43:54.863Z,14.60
2022-10-25T20:46:23.281Z,18.52
2022-10-25T20:48:50.780Z,12.30
2022-10-25T20:51:18.251Z,10.13
2022-10-25T20:53:45.779Z,17.42
2022-10-25T20:56:13.282Z,14.02
2022-10-25T20:58:40.654Z,16.80
2022-10-25T21:01:09.720Z,10.52
2022-10-25T21:03:37.561Z,15.98
2022-10-25T21:06:06.042Z,14.70
2022-10-25T21:08:33.836Z,15.07
2022-10-25T21:11:01.872Z,14.98
2022-10-25T21:13:30.921Z,12.30
2022-10-25T21:15:58.588Z,12.73
2022-10-25T21:18:29.246Z,13.38
2022-10-25T21:21:00.417Z,18.92
2022-10-25T21:23:27.792Z,13.30
2022-10-25T21:25:57.994Z,16.42
2022-10-25T21:28:26.248Z,14.50
2022-10-25T21:30:53.717Z,16.50
2022-10-25T21:33:21.037Z,14.88
2022-10-25T21:35:49.777Z,13.35
2022-10-25T21:38:17.087Z,14.05
2022-10-25T21:40:44.442Z,13.20
2022-10-25T21:43:11.825Z,13.00
2022-10-25T21:45:41.637Z,17.40
2022-10-25T21:48:08.996Z,13.27
2022-10-25T21:50:36.301Z,15.15
2022-10-25T21:53:04.959Z,23.38
2022-10-25T21:55:32.299Z,14.18
2022-10-25T21:57:59.947Z,11.30
2022-10-25T22:00:27.431Z,11.80
2022-10-25T22:02:54.743Z,13.82
2022-10-25T22:05:22.124Z,10.98
2022-10-25T22:07:49.617Z,11.55
2022-10-25T22:10:18.625Z,17.02
2022-10-25T22:12:46.351Z,15.20
2022-10-25T22:15:14.092Z,9.68
2022-10-25T22:17:41.415Z,12.68
2022-10-25T22:20:09.316Z,11.85
2022-10-25T22:22:36.590Z,12.45
2022-10-25T22:25:04.088Z,13.82
2022-10-25T22:27:32.756Z,15.73
2022-10-25T22:30:02.822Z,17.95
2022-10-25T22:32:30.264Z,9.20
2022-10-25T22:34:57.696Z,15.35
2022-10-25T22:37:24.979Z,12.45
2022-10-25T22:39:52.316Z,15.80
2022-10-25T22:42:19.618Z,14.38
2022-10-25T22:44:48.298Z,14.77
2022-10-25T22:47:15.662Z,14.02
2022-10-25T22:49:43.078Z,13.70
2022-10-25T22:52:11.299Z,13.38
2022-10-25T22:54:38.643Z,17.05
2022-10-25T22:57:05.982Z,15.40
2022-10-25T22:59:33.293Z,12.75
2022-10-25T23:02:01.990Z,16.52
2022-10-25T23:04:29.378Z,15.80
2022-10-25T23:06:56.744Z,14.23
2022-10-25T23:09:24.077Z,12.68
2022-10-25T23:11:51.416Z,14.23
2022-10-25T23:14:18.802Z,16.23
2022-10-25T23:16:46.245Z,15.00
2022-10-25T23:19:15.180Z,11.73
2022-10-25T23:21:42.528Z,11.50
2022-10-25T23:24:09.954Z,10.73
2022-10-25T23:26:37.272Z,9.73
2022-10-25T23:29:04.925Z,12.63
2022-10-25T23:31:32.411Z,11.30
2022-10-25T23:34:00.527Z,8.20
2022-10-25T23:36:30.367Z,16.48
2022-10-25T23:38:58.847Z,11.07
2022-10-25T23:41:26.175Z,9.13
2022-10-25T23:43:53.489Z,13.48
2022-10-25T23:46:20.810Z,9.90
2022-10-25T23:48:48.173Z,11.63
2022-10-25T23:51:16.204Z,7.80
2022-10-25T23:53:45.455Z,12.13
2022-10-25T23:56:13.572Z,11.23
2022-10-25T23:58:41.049Z,8.48
